createdAt,value
2024-03-10T00:00:17.817Z,21.63
2024-03-10T00:03:07.984Z,21.88
2024-03-10T00:05:36.996Z,23.25
2024-03-10T00:08:05.397Z,23.02
2024-03-10T00:10:38.822Z,22.38
2024-03-10T00:13:07.095Z,21.75
2024-03-10T00:15:34.794Z,22.92
2024-03-10T00:18:02.821Z,22.63
2024-03-10T00:20:31.065Z,23.10
2024-03-10T00:22:59.240Z,23.60
2024-03-10T00:25:28.039Z,25.08
2024-03-10T00:27:56.150Z,26.75
2024-03-10T00:30:24.936Z,26.45
2024-03-10T00:32:53.079Z,25.85
2024-03-10T00:35:21.349Z,26.65
2024-03-10T00:37:49.598Z,26.15
2024-03-10T00:40:17.683Z,26.50
2024-03-10T00:42:46.132Z,25.27
2024-03-10T00:45:15.462Z,25.73
2024-03-10T00:47:44.439Z,25.17
2024-03-10T00:50:12.436Z,25.38
2024-03-10T00:52:42.452Z,27.15
2024-03-10T00:55:12.173Z,24.85
2024-03-10T00:57:42.211Z,25.63
2024-03-10T01:00:12.013Z,26.05
2024-03-10T01:02:41.371Z,25.55
2024-03-10T01:05:11.063Z,26.80
2024-03-10T01:07:39.963Z,27.60
2024-03-10T01:10:10.354Z,27.52
2024-03-10T01:12:41.208Z,25.75
2024-03-10T01:15:09.358Z,27.05
2024-03-10T01:17:37.548Z,25.50
2024-03-10T01:20:07.913Z,26.65
2024-03-10T01:22:36.138Z,26.42
2024-03-10T01:25:05.746Z,26.20
2024-03-10T01:27:34.067Z,25.73
2024-03-10T01:30:02.019Z,24.77
2024-03-10T01:32:31.139Z,26.30
2024-03-10T01:34:59.098Z,26.08
2024-03-10T01:37:27.123Z,26.75
2024-03-10T01:39:54.824Z,27.48
2024-03-10T01:42:22.925Z,26.05
2024-03-10T01:44:50.607Z,27.70
2024-03-10T01:47:18.752Z,27.98
2024-03-10T01:49:46.673Z,27.17
2024-03-10T01:52:14.745Z,28.55
2024-03-10T01:54:43.101Z,28.30
2024-03-10T01:57:11.821Z,29.88
2024-03-10T01:59:39.821Z,30.65
2024-03-10T02:02:08.221Z,30.48
2024-03-10T02:04:38.929Z,27.25
2024-03-10T02:07:07.428Z,28.25
2024-03-10T02:09:38.917Z,28.45
2024-03-10T02:12:08.022Z,28.73
2024-03-10T02:14:35.853Z,28.02
2024-03-10T02:17:04.884Z,27.08
2024-03-10T02:19:32.790Z,27.77
2024-03-10T02:22:00.946Z,28.77
2024-03-10T02:24:35.101Z,28.60
2024-03-10T02:27:04.211Z,28.42
2024-03-10T02:29:44.984Z,30.13
2024-03-10T02:32:31.849Z,28.45
2024-03-10T02:35:18.014Z,28.30
2024-03-10T02:38:04.419Z,27.65
2024-03-10T02:40:50.796Z,28.90
2024-03-10T02:43:37.397Z,28.92
2024-03-10T02:46:23.834Z,28.35
2024-03-10T02:48:51.923Z,29.23
2024-03-10T02:51:19.736Z,28.23
2024-03-10T02:53:50.386Z,29.27
2024-03-10T02:56:21.760Z,28.25
2024-03-10T02:58:49.821Z,28.13
2024-03-10T03:01:19.884Z,28.17
2024-03-10T03:03:48.077Z,29.80
2024-03-10T03:06:15.850Z,29.48
2024-03-10T03:08:44.230Z,28.75
2024-03-10T03:11:12.036Z,29.70
2024-03-10T03:13:40.102Z,28.08
2024-03-10T03:16:11.079Z,28.20
2024-03-10T03:18:41.547Z,29.67
2024-03-10T03:21:09.334Z,28.13
2024-03-10T03:23:37.794Z,28.95
2024-03-10T03:26:05.686Z,29.13
2024-03-10T03:28:34.126Z,27.48
2024-03-10T03:31:01.904Z,28.15
2024-03-10T03:33:29.873Z,30.20
2024-03-10T03:35:58.062Z,28.40
2024-03-10T03:38:26.238Z,30.27
2024-03-10T03:40:54.017Z,27.98
2024-03-10T03:43:22.117Z,28.08
2024-03-10T03:45:51.085Z,28.85
2024-03-10T03:48:20.061Z,28.65
2024-03-10T03:50:48.009Z,29.70
2024-03-10T03:53:16.090Z,30.90
2024-03-10T03:55:43.821Z,29.65
2024-03-10T03:58:11.802Z,29.58
2024-03-10T04:00:39.491Z,29.08
2024-03-10T04:03:07.644Z,30.38
2024-03-10T04:05:35.460Z,30.15
2024-03-10T04:08:03.594Z,29.40
2024-03-10T04:10:31.355Z,32.13
2024-03-10T04:12:59.290Z,32.22
2024-03-10T04:15:27.022Z,32.78
2024-03-10T04:17:55.084Z,36.33
2024-03-10T04:20:22.839Z,35.60
2024-03-10T04:22:50.889Z,35.05
2024-03-10T04:25:18.702Z,36.17
2024-03-10T04:27:47.284Z,33.25
2024-03-10T04:30:15.128Z,29.05
2024-03-10T04:32:43.188Z,29.38
2024-03-10T04:35:11.862Z,30.15
2024-03-10T04:37:40.082Z,29.63
2024-03-10T04:40:11.074Z,28.02
2024-03-10T04:42:39.464Z,28.35
2024-03-10T04:45:12.796Z,28.73
2024-03-10T04:47:41.024Z,28.92
2024-03-10T04:50:10.310Z,28.23
2024-03-10T04:52:38.847Z,30.63
2024-03-10T04:55:07.078Z,28.75
2024-03-10T04:57:35.207Z,28.75
2024-03-10T05:00:04.521Z,29.40
2024-03-10T05:02:33.087Z,27.90
2024-03-10T05:05:04.689Z,29.40
2024-03-10T05:07:32.770Z,30.55
2024-03-10T05:10:00.480Z,28.60
2024-03-10T05:12:28.512Z,27.92
2024-03-10T05:14:56.342Z,29.13
2024-03-10T05:17:24.750Z,28.95
2024-03-10T05:19:52.502Z,27.27
2024-03-10T05:22:20.563Z,27.70
2024-03-10T05:24:48.445Z,27.48
2024-03-10T05:27:17.175Z,27.17
2024-03-10T05:29:45.030Z,28.55
2024-03-10T05:32:13.177Z,26.27
2024-03-10T05:34:41.144Z,27.92
2024-03-10T05:37:09.340Z,27.35
2024-03-10T05:39:37.623Z,26.27
2024-03-10T05:42:06.490Z,26.30
2024-03-10T05:44:37.524Z,25.77
2024-03-10T05:47:05.943Z,26.08
2024-03-10T05:49:34.018Z,27.08
2024-03-10T05:52:02.131Z,25.73
2024-03-10T05:54:29.982Z,24.40
2024-03-10T05:57:00.154Z,24.70
2024-03-10T05:59:28.018Z,25.17
2024-03-10T06:01:56.445Z,25.55
2024-03-10T06:04:24.234Z,25.70
2024-03-10T06:06:52.967Z,24.88
2024-03-10T06:09:20.795Z,23.17
2024-03-10T06:11:48.943Z,24.63
2024-03-10T06:14:17.609Z,25.55
2024-03-10T06:16:46.375Z,25.08
2024-03-10T06:19:34.427Z,24.42
2024-03-10T06:22:21.306Z,25.60
2024-03-10T06:25:07.868Z,24.95
2024-03-10T06:27:36.083Z,25.38
2024-03-10T06:30:04.103Z,24.75
2024-03-10T06:32:32.335Z,24.80
2024-03-10T06:35:00.303Z,25.15
2024-03-10T06:37:28.363Z,25.40
2024-03-10T06:39:56.095Z,25.13
2024-03-10T06:42:24.257Z,26.27
2024-03-10T06:44:52.153Z,26.23
2024-03-10T06:47:22.055Z,24.48
2024-03-10T06:49:49.850Z,23.83
2024-03-10T06:52:18.078Z,24.40
2024-03-10T06:54:45.850Z,25.45
2024-03-10T06:57:13.959Z,25.45
2024-03-10T06:59:45.544Z,25.83
2024-03-10T07:02:13.861Z,25.73
2024-03-10T07:04:42.012Z,23.58
2024-03-10T07:07:10.118Z,25.63
2024-03-10T07:09:37.948Z,24.65
2024-03-10T07:12:07.666Z,24.55
2024-03-10T07:14:36.528Z,25.67
2024-03-10T07:17:05.255Z,24.70
2024-03-10T07:19:33.769Z,24.48
2024-03-10T07:22:01.943Z,24.38
2024-03-10T07:24:29.704Z,25.27
2024-03-10T07:26:57.710Z,23.15
2024-03-10T07:29:25.523Z,23.50
2024-03-10T07:31:54.194Z,23.83
2024-03-10T07:34:21.893Z,24.42
2024-03-10T07:36:49.937Z,23.02
2024-03-10T07:39:17.771Z,22.63
2024-03-10T07:41:45.921Z,21.05
2024-03-10T07:44:13.740Z,20.85
2024-03-10T07:46:41.799Z,21.48
2024-03-10T07:49:11.350Z,21.05
2024-03-10T07:51:39.795Z,22.00
2024-03-10T07:54:07.603Z,21.77
2024-03-10T07:56:35.720Z,21.02
2024-03-10T07:59:03.559Z,21.52
2024-03-10T08:01:31.753Z,20.95
2024-03-10T08:03:59.454Z,20.33
2024-03-10T08:06:27.532Z,20.77
2024-03-10T08:08:55.394Z,19.38
2024-03-10T08:11:23.740Z,19.80
2024-03-10T08:13:51.677Z,19.52
2024-03-10T08:16:20.951Z,19.20
2024-03-10T08:18:51.070Z,20.13
2024-03-10T08:21:19.960Z,19.17
2024-03-10T08:23:47.866Z,19.40
2024-03-10T08:26:16.010Z,19.35
2024-03-10T08:28:44.009Z,19.17
2024-03-10T08:31:14.179Z,19.58
2024-03-10T08:33:42.027Z,19.98
2024-03-10T08:36:10.555Z,17.92
2024-03-10T08:38:38.699Z,17.77
2024-03-10T08:41:06.758Z,17.73
2024-03-10T08:43:35.999Z,16.40
2024-03-10T08:46:04.419Z,15.05
2024-03-10T08:48:32.291Z,14.88
2024-03-10T08:51:00.593Z,13.93
2024-03-10T08:53:28.755Z,14.82
2024-03-10T08:55:57.075Z,14.98
2024-03-10T08:58:24.849Z,13.88
2024-03-10T09:00:53.379Z,14.70
2024-03-10T09:03:23.041Z,14.75
2024-03-10T09:05:51.227Z,14.98
2024-03-10T09:08:18.993Z,14.15
2024-03-10T09:10:53.652Z,13.38
2024-03-10T09:13:30.546Z,14.60
2024-03-10T09:15:58.575Z,14.43
2024-03-10T09:18:27.112Z,14.63
2024-03-10T09:20:55.446Z,13.55
2024-03-10T09:23:23.219Z,13.73
2024-03-10T09:25:51.842Z,14.45
2024-03-10T09:28:22.058Z,14.00
2024-03-10T09:30:50.165Z,14.05
2024-03-10T09:33:23.612Z,14.20
2024-03-10T09:35:56.760Z,12.70
2024-03-10T09:38:24.799Z,14.07
2024-03-10T09:40:52.857Z,12.52
2024-03-10T09:43:23.170Z,12.90
2024-03-10T09:45:53.473Z,14.20
2024-03-10T09:48:23.543Z,14.23
2024-03-10T09:50:53.556Z,13.45
2024-03-10T09:53:21.805Z,14.70
2024-03-10T09:55:50.316Z,13.90
2024-03-10T09:58:30.078Z,13.75
2024-03-10T10:01:13.530Z,13.52
2024-03-10T10:03:51.366Z,13.52
2024-03-10T10:06:21.550Z,12.52
2024-03-10T10:08:56.498Z,13.10
2024-03-10T10:11:25.221Z,13.50
2024-03-10T10:14:16.176Z,13.80
2024-03-10T10:17:00.424Z,13.07
2024-03-10T10:19:33.402Z,14.13
2024-03-10T10:22:07.124Z,13.18
2024-03-10T10:24:35.141Z,12.43
2024-03-10T10:27:04.428Z,12.48
2024-03-10T10:29:48.747Z,11.93
2024-03-10T10:32:21.900Z,12.95
2024-03-10T10:34:53.586Z,13.37
2024-03-10T10:37:22.312Z,10.38
2024-03-10T10:39:50.332Z,12.40
2024-03-10T10:42:29.727Z,11.05
2024-03-10T10:45:03.005Z,12.00
2024-03-10T10:47:33.056Z,12.48
2024-03-10T10:50:01.519Z,10.52
2024-03-10T10:52:29.916Z,12.25
2024-03-10T10:54:57.728Z,11.65
2024-03-10T10:57:26.905Z,11.60
2024-03-10T10:59:54.711Z,9.82
2024-03-10T11:02:22.923Z,11.60
2024-03-10T11:04:54.689Z,10.82
2024-03-10T11:07:29.083Z,10.50
2024-03-10T11:12:25.590Z,12.25
2024-03-10T11:14:55.117Z,10.63
2024-03-10T11:17:24.974Z,9.27
2024-03-10T11:19:54.357Z,10.00
2024-03-10T11:22:26.867Z,9.50
2024-03-10T11:25:09.858Z,11.63
2024-03-10T11:27:46.349Z,10.30
2024-03-10T11:30:49.407Z,11.55
2024-03-10T11:33:25.392Z,10.55
2024-03-10T11:35:56.641Z,11.77
2024-03-10T11:38:24.864Z,8.93
2024-03-10T11:41:01.305Z,9.93
2024-03-10T11:43:30.212Z,10.73
2024-03-10T11:45:58.555Z,10.88
2024-03-10T11:48:28.703Z,11.95
2024-03-10T11:50:56.726Z,11.75
2024-03-10T11:53:28.134Z,11.60
2024-03-10T11:56:02.452Z,11.73
2024-03-10T11:58:31.201Z,10.15
2024-03-10T12:01:03.726Z,10.63
2024-03-10T12:03:34.500Z,10.35
2024-03-10T12:06:03.657Z,10.95
2024-03-10T12:08:39.701Z,10.35
2024-03-10T12:11:07.886Z,11.45
2024-03-10T12:13:42.350Z,10.35
2024-03-10T12:16:12.248Z,10.05
2024-03-10T12:18:43.265Z,10.15
2024-03-10T12:21:19.635Z,10.43
2024-03-10T12:23:48.189Z,10.70
2024-03-10T12:26:17.407Z,9.88
2024-03-10T12:28:49.128Z,10.15
2024-03-10T12:31:18.365Z,9.88
2024-03-10T12:33:47.900Z,10.85
2024-03-10T12:36:15.731Z,8.60
2024-03-10T12:38:44.972Z,10.02
2024-03-10T12:41:15.347Z,9.88
2024-03-10T12:43:43.638Z,10.32
2024-03-10T12:46:16.438Z,10.07
2024-03-10T12:48:49.060Z,9.50
2024-03-10T12:51:17.949Z,9.52
2024-03-10T12:53:46.587Z,9.63
2024-03-10T12:56:15.049Z,9.45
2024-03-10T12:58:44.943Z,10.18
2024-03-10T13:01:13.079Z,9.60
2024-03-10T13:03:40.960Z,8.93
2024-03-10T13:06:09.067Z,9.70
2024-03-10T13:08:36.893Z,9.90
2024-03-10T13:11:06.856Z,9.35
2024-03-10T13:13:34.660Z,10.52
2024-03-10T13:16:02.896Z,9.45
2024-03-10T13:18:30.632Z,9.55
2024-03-10T13:20:59.133Z,9.25
2024-03-10T13:23:26.972Z,9.65
2024-03-10T13:25:55.015Z,9.32
2024-03-10T13:28:24.059Z,10.55
2024-03-10T13:30:52.260Z,8.57
2024-03-10T13:33:20.368Z,8.77
2024-03-10T13:35:50.561Z,10.00
2024-03-10T13:38:21.350Z,10.57
2024-03-10T13:40:50.747Z,9.43
2024-03-10T13:43:18.948Z,10.65
2024-03-10T13:45:46.970Z,10.38
2024-03-10T13:48:14.840Z,11.68
2024-03-10T13:50:44.130Z,11.40
2024-03-10T13:53:12.975Z,11.23
2024-03-10T13:55:41.808Z,10.40
2024-03-10T13:58:13.443Z,10.32
2024-03-10T14:00:41.992Z,9.70
2024-03-10T14:03:09.776Z,10.60
2024-03-10T14:05:38.406Z,10.07
2024-03-10T14:08:07.372Z,9.70
2024-03-10T14:10:35.550Z,9.57
2024-03-10T14:13:04.442Z,9.82
2024-03-10T14:15:41.007Z,9.40
2024-03-10T14:18:09.734Z,10.27
2024-03-10T14:20:38.327Z,10.50
2024-03-10T14:23:07.045Z,10.13
2024-03-10T14:25:35.241Z,10.55
2024-03-10T14:28:03.360Z,10.38
2024-03-10T14:30:32.864Z,10.77
2024-03-10T14:33:04.339Z,9.40
2024-03-10T14:35:32.971Z,10.32
2024-03-10T14:38:00.977Z,10.02
2024-03-10T14:40:30.399Z,10.07
2024-03-10T14:42:59.543Z,9.15
2024-03-10T14:45:30.657Z,10.30
2024-03-10T14:47:58.957Z,10.88
2024-03-10T14:50:33.765Z,9.27
2024-03-10T14:53:02.579Z,11.00
2024-03-10T14:55:31.127Z,10.95
2024-03-10T14:58:01.718Z,9.25
2024-03-10T15:00:38.845Z,10.55
2024-03-10T15:03:12.000Z,10.15
2024-03-10T15:05:43.644Z,10.40
2024-03-10T15:08:17.214Z,10.80
2024-03-10T15:10:47.652Z,10.50
2024-03-10T15:13:17.723Z,11.02
2024-03-10T15:15:45.937Z,9.75
2024-03-10T15:18:14.338Z,10.73
2024-03-10T15:20:47.840Z,11.02
2024-03-10T15:23:21.235Z,10.32
2024-03-10T15:25:51.447Z,9.50
2024-03-10T15:28:21.287Z,10.52
2024-03-10T15:30:49.934Z,11.10
2024-03-10T15:33:18.193Z,10.95
2024-03-10T15:35:46.567Z,11.40
2024-03-10T15:38:15.321Z,10.70
2024-03-10T15:40:44.482Z,11.38
2024-03-10T15:43:13.955Z,11.43
2024-03-10T15:45:43.807Z,12.77
2024-03-10T15:48:12.735Z,14.82
2024-03-10T15:50:40.943Z,13.18
2024-03-10T15:53:11.518Z,11.55
2024-03-10T15:55:39.833Z,12.05
2024-03-10T15:58:08.879Z,10.88
2024-03-10T16:00:39.900Z,11.13
2024-03-10T16:03:12.434Z,10.88
2024-03-10T16:05:50.973Z,11.48
2024-03-10T16:08:22.408Z,12.65
2024-03-10T16:10:51.383Z,11.57
2024-03-10T16:13:31.870Z,11.27
2024-03-10T16:16:02.243Z,11.20
2024-03-10T16:18:33.417Z,11.27
2024-03-10T16:21:03.103Z,10.55
2024-03-10T16:23:31.242Z,10.48
2024-03-10T16:25:59.352Z,10.85
2024-03-10T16:28:27.507Z,12.88
2024-03-10T16:30:55.368Z,14.60
2024-03-10T16:33:23.377Z,13.68
2024-03-10T16:35:51.157Z,13.25
2024-03-10T16:38:19.414Z,14.07
2024-03-10T16:40:47.731Z,12.60
2024-03-10T16:43:17.938Z,14.23
2024-03-10T16:45:49.465Z,15.40
2024-03-10T16:48:18.347Z,13.45
2024-03-10T16:50:46.374Z,14.50
2024-03-10T16:53:16.453Z,14.93
2024-03-10T16:55:47.773Z,12.68
2024-03-10T16:58:20.660Z,13.73
2024-03-10T17:00:48.733Z,11.95
2024-03-10T17:03:16.938Z,13.07
2024-03-10T17:05:45.135Z,12.63
2024-03-10T17:08:15.041Z,12.82
2024-03-10T17:10:45.403Z,12.55
2024-03-10T17:13:15.299Z,12.40
2024-03-10T17:15:43.671Z,11.75
2024-03-10T17:18:14.294Z,11.88
2024-03-10T17:20:42.813Z,11.45
2024-03-10T17:23:13.899Z,10.73
2024-03-10T17:25:41.904Z,10.43
2024-03-10T17:28:10.016Z,11.82
2024-03-10T17:30:37.729Z,10.85
2024-03-10T17:33:07.042Z,10.68
2024-03-10T17:35:35.595Z,11.52
2024-03-10T17:38:05.708Z,11.82
2024-03-10T17:40:33.868Z,11.05
2024-03-10T17:43:01.915Z,12.32
2024-03-10T17:45:29.707Z,13.35
2024-03-10T17:47:57.805Z,11.75
2024-03-10T17:50:26.106Z,14.30
2024-03-10T17:52:54.232Z,15.70
2024-03-10T17:55:22.105Z,13.30
2024-03-10T17:57:50.157Z,13.13
2024-03-10T18:00:23.633Z,13.38
2024-03-10T18:05:19.758Z,12.43
2024-03-10T18:07:52.325Z,13.23
2024-03-10T18:10:24.013Z,13.05
2024-03-10T18:12:52.528Z,9.32
2024-03-10T18:15:26.762Z,12.43
2024-03-10T18:17:54.965Z,10.93
2024-03-10T18:20:26.118Z,12.45
2024-03-10T18:22:54.740Z,12.25
2024-03-10T18:25:22.892Z,12.40
2024-03-10T18:27:51.929Z,11.93
2024-03-10T18:30:19.756Z,11.48
2024-03-10T18:32:47.945Z,12.90
2024-03-10T18:35:18.830Z,12.93
2024-03-10T18:37:46.927Z,11.25
2024-03-10T18:40:15.807Z,11.10
2024-03-10T18:42:44.914Z,11.27
2024-03-10T18:45:14.539Z,11.27
2024-03-10T18:47:43.129Z,11.68
2024-03-10T18:50:12.956Z,11.13
2024-03-10T18:52:42.657Z,10.32
2024-03-10T18:55:13.008Z,10.45
2024-03-10T18:57:42.300Z,10.88
2024-03-10T19:00:13.272Z,10.77
2024-03-10T19:02:42.798Z,9.95
2024-03-10T19:05:12.619Z,10.13
2024-03-10T19:07:42.260Z,10.65
2024-03-10T19:10:11.286Z,10.43
2024-03-10T19:12:46.157Z,11.60
2024-03-10T19:15:15.555Z,10.05
2024-03-10T19:17:44.870Z,10.73
2024-03-10T19:20:19.301Z,10.15
2024-03-10T19:22:56.034Z,10.15
2024-03-10T19:25:26.905Z,10.48
2024-03-10T19:27:55.313Z,9.30
2024-03-10T19:30:23.410Z,9.35
2024-03-10T19:32:51.914Z,10.63
2024-03-10T19:35:23.046Z,10.20
2024-03-10T19:37:52.248Z,10.85
2024-03-10T19:40:20.705Z,9.38
2024-03-10T19:42:50.282Z,10.60
2024-03-10T19:45:22.252Z,10.38
2024-03-10T19:47:50.984Z,9.98
2024-03-10T19:50:19.483Z,10.10
2024-03-10T19:52:50.344Z,10.00
2024-03-10T19:55:18.655Z,9.82
2024-03-10T19:57:46.821Z,9.95
2024-03-10T20:00:17.880Z,9.93
2024-03-10T20:02:47.603Z,10.25
2024-03-10T20:05:16.183Z,10.07
2024-03-10T20:07:48.777Z,9.45
2024-03-10T20:10:19.626Z,9.95
2024-03-10T20:12:50.798Z,10.52
2024-03-10T20:15:19.534Z,9.55
2024-03-10T20:17:50.536Z,8.90
2024-03-10T20:20:26.460Z,10.07
2024-03-10T20:22:56.287Z,10.20
2024-03-10T20:25:25.964Z,8.23
2024-03-10T20:27:57.211Z,9.25
2024-03-10T20:30:26.386Z,9.50
2024-03-10T20:32:54.500Z,7.93
2024-03-10T20:35:22.549Z,9.30
2024-03-10T20:37:50.733Z,8.77
2024-03-10T20:40:19.308Z,9.52
2024-03-10T20:42:48.725Z,9.52
2024-03-10T20:45:17.015Z,8.95
2024-03-10T20:47:47.705Z,9.23
2024-03-10T20:50:23.543Z,8.25
2024-03-10T20:52:53.689Z,9.35
2024-03-10T20:55:22.272Z,9.65
2024-03-10T20:57:50.335Z,8.70
2024-03-10T21:00:23.489Z,9.30
2024-03-10T21:05:22.965Z,9.13
2024-03-10T21:07:53.757Z,8.85
2024-03-10T21:10:23.588Z,8.90
2024-03-10T21:12:52.913Z,8.90
2024-03-10T21:15:23.828Z,8.07
2024-03-10T21:17:53.804Z,7.60
2024-03-10T21:20:24.317Z,8.65
2024-03-10T21:22:53.409Z,7.78
2024-03-10T21:25:24.270Z,7.70
2024-03-10T21:27:52.478Z,8.52
2024-03-10T21:30:20.369Z,8.52
2024-03-10T21:32:48.774Z,8.45
2024-03-10T21:35:19.316Z,8.00
2024-03-10T21:37:48.929Z,7.50
2024-03-10T21:40:17.725Z,8.85
2024-03-10T21:42:45.923Z,8.93
2024-03-10T21:45:13.698Z,8.25
2024-03-10T21:47:45.249Z,7.47
2024-03-10T21:50:15.567Z,8.40
2024-03-10T21:52:45.286Z,8.40
2024-03-10T21:55:13.964Z,8.50
2024-03-10T21:57:42.002Z,8.27
2024-03-10T22:00:16.730Z,8.48
2024-03-10T22:02:46.617Z,7.38
2024-03-10T22:05:15.574Z,8.40
2024-03-10T22:07:44.533Z,8.43
2024-03-10T22:10:15.043Z,8.02
2024-03-10T22:12:47.044Z,7.57
2024-03-10T22:15:19.070Z,8.13
2024-03-10T22:17:51.128Z,7.63
2024-03-10T22:20:27.199Z,7.40
2024-03-10T22:22:56.951Z,8.00
2024-03-10T22:25:28.178Z,7.40
2024-03-10T22:27:57.648Z,7.15
2024-03-10T22:30:28.704Z,7.60
2024-03-10T22:32:58.220Z,7.43
2024-03-10T22:35:27.161Z,8.15
2024-03-10T22:37:56.907Z,6.95
2024-03-10T22:40:25.549Z,7.97
2024-03-10T22:42:55.263Z,7.03
2024-03-10T22:45:30.621Z,7.78
2024-03-10T22:48:01.854Z,7.57
2024-03-10T22:50:30.674Z,7.97
2024-03-10T22:53:01.766Z,7.72
2024-03-10T22:55:30.546Z,6.25
2024-03-10T22:57:58.340Z,8.57
2024-03-10T23:00:26.567Z,6.57
2024-03-10T23:03:08.224Z,8.05
2024-03-10T23:05:37.501Z,7.65
2024-03-10T23:08:10.107Z,8.98
2024-03-10T23:10:39.953Z,8.15
2024-03-10T23:13:09.856Z,8.05
2024-03-10T23:15:38.197Z,8.60
2024-03-10T23:18:07.938Z,7.60
2024-03-10T23:20:39.382Z,8.15
2024-03-10T23:23:07.723Z,7.10
2024-03-10T23:25:36.369Z,8.50
2024-03-10T23:28:07.783Z,9.15
2024-03-10T23:30:39.035Z,8.32
2024-03-10T23:33:07.173Z,7.88
2024-03-10T23:35:35.449Z,7.65
2024-03-10T23:38:05.312Z,8.95
2024-03-10T23:40:33.966Z,8.45
2024-03-10T23:43:02.170Z,7.85
2024-03-10T23:45:30.991Z,7.85
2024-03-10T23:47:58.959Z,8.95
2024-03-10T23:50:28.098Z,8.38
2024-03-10T23:52:58.906Z,8.32
2024-03-10T23:55:44.781Z,6.53
2024-03-10T23:58:13.354Z,8.23
